createdAt,value
2023-03-13T00:02:15.358Z,13.30
2023-03-13T00:04:57.002Z,13.03
2023-03-13T00:07:33.979Z,12.13
2023-03-13T00:10:17.781Z,11.93
2023-03-13T00:12:54.116Z,11.67
2023-03-13T00:15:30.183Z,11.50
2023-03-13T00:18:07.714Z,11.87
2023-03-13T00:20:44.386Z,11.77
2023-03-13T00:23:20.756Z,12.17
2023-03-13T00:26:04.067Z,12.27
2023-03-13T00:28:41.278Z,12.53
2023-03-13T00:31:19.658Z,12.73
2023-03-13T00:34:06.088Z,12.00
2023-03-13T00:36:48.257Z,12.93
2023-03-13T00:39:26.999Z,12.77
2023-03-13T00:42:09.703Z,12.93
2023-03-13T00:44:52.860Z,12.13
2023-03-13T00:47:29.800Z,12.80
2023-03-13T00:50:07.646Z,13.43
2023-03-13T00:52:45.942Z,13.70
2023-03-13T00:55:25.203Z,13.40
2023-03-13T00:58:04.753Z,13.50
2023-03-13T01:00:44.932Z,13.77
2023-03-13T01:03:23.067Z,13.33
2023-03-13T01:06:05.023Z,13.00
2023-03-13T01:08:42.201Z,14.20
2023-03-13T01:11:26.823Z,14.37
2023-03-13T01:14:09.427Z,13.83
2023-03-13T01:16:50.707Z,13.87
2023-03-13T01:19:27.628Z,14.10
2023-03-13T01:22:05.390Z,14.57
2023-03-13T01:24:41.634Z,14.57
2023-03-13T01:27:22.028Z,14.67
2023-03-13T01:30:02.607Z,15.27
2023-03-13T01:32:55.765Z,15.00
2023-03-13T01:35:54.487Z,14.20
2023-03-13T01:38:35.092Z,15.60
2023-03-13T01:41:16.575Z,16.10
2023-03-13T01:43:53.327Z,16.17
2023-03-13T01:46:42.451Z,16.47
2023-03-13T01:49:29.190Z,16.93
2023-03-13T01:52:38.524Z,16.77
2023-03-13T01:55:24.041Z,16.00
2023-03-13T01:58:05.461Z,16.40
2023-03-13T02:00:49.228Z,17.93
2023-03-13T02:03:34.121Z,17.27
2023-03-13T02:06:24.145Z,17.57
2023-03-13T02:09:06.918Z,18.07
2023-03-13T02:11:54.883Z,18.33
2023-03-13T02:14:35.146Z,18.43
2023-03-13T02:17:14.238Z,17.57
2023-03-13T02:19:56.942Z,19.30
2023-03-13T02:22:44.592Z,19.77
2023-03-13T02:25:40.525Z,18.70
2023-03-13T02:28:43.244Z,16.93
2023-03-13T02:31:22.481Z,17.63
2023-03-13T02:34:02.587Z,18.10
2023-03-13T02:36:39.902Z,17.43
2023-03-13T02:39:20.235Z,17.27
2023-03-13T02:42:09.564Z,17.50
2023-03-13T02:44:49.196Z,17.83
2023-03-13T02:47:35.703Z,18.67
2023-03-13T02:50:13.123Z,17.83
2023-03-13T02:52:54.417Z,17.53
2023-03-13T02:55:34.489Z,17.50
2023-03-13T02:58:18.054Z,16.43
2023-03-13T03:00:57.894Z,18.30
2023-03-13T03:03:42.937Z,16.70
2023-03-13T03:06:29.530Z,16.37
2023-03-13T03:09:21.368Z,14.77
2023-03-13T03:12:03.912Z,12.00
2023-03-13T03:14:47.268Z,11.00
2023-03-13T03:17:30.705Z,11.20
2023-03-13T03:20:14.545Z,10.97
2023-03-13T03:23:01.392Z,12.13
2023-03-13T03:25:42.128Z,12.00
2023-03-13T03:28:20.958Z,12.33
2023-03-13T03:31:03.662Z,12.57
2023-03-13T03:33:45.298Z,12.20
2023-03-13T03:36:27.707Z,12.57
2023-03-13T03:39:07.594Z,12.03
2023-03-13T03:41:48.239Z,9.43
2023-03-13T03:44:25.926Z,8.53
2023-03-13T03:47:15.721Z,7.60
2023-03-13T03:50:02.186Z,9.30
2023-03-13T03:52:42.910Z,10.50
2023-03-13T03:55:22.764Z,8.90
2023-03-13T03:58:00.917Z,8.20
2023-03-13T04:01:05.210Z,7.93
2023-03-13T04:03:48.853Z,6.13
2023-03-13T04:06:28.757Z,7.47
2023-03-13T04:09:06.313Z,7.73
2023-03-13T04:11:45.176Z,7.47
2023-03-13T04:14:26.722Z,7.00
2023-03-13T04:17:04.487Z,7.20
2023-03-13T04:19:46.439Z,7.10
2023-03-13T04:22:26.446Z,6.90
2023-03-13T04:25:20.649Z,7.07
2023-03-13T04:28:03.976Z,7.03
2023-03-13T04:30:52.251Z,7.37
2023-03-13T04:33:56.739Z,7.30
2023-03-13T04:37:13.456Z,8.67
2023-03-13T04:40:18.940Z,7.50
2023-03-13T04:43:21.771Z,6.40
2023-03-13T04:46:25.957Z,6.67
2023-03-13T04:49:25.367Z,6.77
2023-03-13T04:52:24.984Z,6.90
2023-03-13T04:55:20.030Z,6.57
2023-03-13T04:58:25.800Z,6.70
2023-03-13T05:01:24.481Z,7.37
2023-03-13T05:04:25.796Z,6.43
2023-03-13T05:07:10.230Z,5.80
2023-03-13T05:10:15.980Z,6.87
2023-03-13T05:13:19.607Z,7.77
2023-03-13T05:16:07.572Z,7.30
2023-03-13T05:19:03.545Z,6.80
2023-03-13T05:21:59.366Z,6.70
2023-03-13T05:24:57.093Z,7.20
2023-03-13T05:27:59.557Z,7.23
2023-03-13T05:30:56.530Z,7.40
2023-03-13T05:33:49.583Z,7.93
2023-03-13T05:36:48.807Z,7.27
2023-03-13T05:39:41.381Z,7.33
2023-03-13T05:42:44.453Z,7.50
2023-03-13T05:45:30.758Z,6.80
2023-03-13T05:48:36.057Z,6.57
2023-03-13T05:51:37.868Z,7.43
2023-03-13T05:54:47.139Z,7.00
2023-03-13T05:57:48.246Z,7.20
2023-03-13T06:01:07.004Z,6.83
2023-03-13T06:04:14.897Z,7.00
2023-03-13T06:06:55.089Z,6.77
2023-03-13T06:09:49.349Z,7.00
2023-03-13T06:12:44.960Z,6.83
2023-03-13T06:15:37.010Z,7.77
2023-03-13T06:18:50.070Z,6.70
2023-03-13T06:21:55.444Z,6.73
2023-03-13T06:24:43.349Z,6.70
2023-03-13T06:27:32.120Z,6.90
2023-03-13T06:30:32.527Z,6.47
2023-03-13T06:33:09.713Z,7.17
2023-03-13T06:36:00.374Z,6.70
2023-03-13T06:38:57.930Z,7.03
2023-03-13T06:41:56.058Z,7.20
2023-03-13T06:45:02.564Z,8.00
2023-03-13T06:48:09.674Z,8.27
2023-03-13T06:50:57.284Z,8.00
2023-03-13T06:53:51.837Z,8.37
2023-03-13T06:56:37.074Z,8.30
2023-03-13T06:59:32.366Z,7.03
2023-03-13T07:02:17.721Z,7.20
2023-03-13T07:05:22.716Z,8.23
2023-03-13T07:08:54.841Z,7.40
2023-03-13T07:11:57.024Z,7.43
2023-03-13T07:14:54.025Z,6.63
2023-03-13T07:18:16.881Z,6.70
2023-03-13T07:21:13.754Z,6.20
2023-03-13T07:24:30.314Z,5.83
2023-03-13T07:27:22.627Z,5.90
2023-03-13T07:30:08.478Z,6.30
2023-03-13T07:32:47.992Z,5.80
2023-03-13T07:36:18.817Z,6.37
2023-03-13T07:38:54.286Z,5.97
2023-03-13T07:41:31.509Z,6.10
2023-03-13T07:44:10.491Z,7.10
2023-03-13T07:46:47.892Z,6.87
2023-03-13T07:49:26.089Z,6.77
2023-03-13T07:52:02.214Z,7.10
2023-03-13T07:54:39.440Z,7.60
2023-03-13T07:57:17.666Z,7.37
2023-03-13T07:59:56.835Z,6.47
2023-03-13T08:02:39.306Z,6.67
2023-03-13T08:05:15.750Z,6.60
2023-03-13T08:07:52.217Z,6.63
2023-03-13T08:10:28.771Z,6.80
2023-03-13T08:13:07.495Z,7.43
2023-03-13T08:15:46.912Z,6.97
2023-03-13T08:18:24.226Z,7.03
2023-03-13T08:21:22.408Z,6.30
2023-03-13T08:24:04.903Z,6.83
2023-03-13T08:26:46.030Z,6.53
2023-03-13T08:29:23.258Z,6.57
2023-03-13T08:32:11.118Z,7.37
2023-03-13T08:34:52.300Z,7.67
2023-03-13T08:37:30.933Z,7.03
2023-03-13T08:40:12.605Z,7.13
2023-03-13T08:42:51.593Z,7.43
2023-03-13T08:45:30.977Z,7.20
2023-03-13T08:48:10.561Z,7.00
2023-03-13T08:50:49.240Z,7.10
2023-03-13T08:53:25.513Z,7.23
2023-03-13T08:56:03.315Z,6.20
2023-03-13T08:58:40.834Z,6.80
2023-03-13T09:01:20.080Z,7.10
2023-03-13T09:04:04.170Z,6.90
2023-03-13T09:06:43.807Z,7.27
2023-03-13T09:09:21.753Z,6.43
2023-03-13T09:12:04.356Z,6.10
2023-03-13T09:14:40.467Z,6.23
2023-03-13T09:17:16.521Z,6.40
2023-03-13T09:20:01.663Z,6.23
2023-03-13T09:22:44.286Z,6.63
2023-03-13T09:25:26.253Z,6.23
2023-03-13T09:28:06.461Z,6.47
2023-03-13T09:30:43.162Z,6.50
2023-03-13T09:33:20.359Z,6.67
2023-03-13T09:36:02.091Z,6.03
2023-03-13T09:38:40.427Z,6.63
2023-03-13T09:41:33.064Z,6.50
2023-03-13T09:44:16.103Z,5.90
2023-03-13T09:47:03.163Z,5.80
2023-03-13T09:49:47.069Z,6.27
2023-03-13T09:53:00.648Z,6.77
2023-03-13T09:55:39.706Z,7.30
2023-03-13T09:58:28.165Z,6.67
2023-03-13T10:01:13.948Z,6.93
2023-03-13T10:04:07.965Z,6.33
2023-03-13T10:09:53.702Z,6.90
2023-03-13T10:12:36.274Z,6.87
2023-03-13T10:15:44.366Z,6.50
2023-03-13T10:18:25.313Z,6.27
2023-03-13T10:21:07.886Z,6.30
2023-03-13T10:23:56.080Z,6.70
2023-03-13T10:26:45.453Z,6.40
2023-03-13T10:29:28.551Z,6.07
2023-03-13T10:32:08.521Z,5.87
2023-03-13T10:34:57.785Z,6.43
2023-03-13T10:37:35.751Z,7.50
2023-03-13T10:40:28.848Z,7.80
2023-03-13T10:43:19.716Z,7.00
2023-03-13T10:45:59.278Z,7.17
2023-03-13T10:48:43.912Z,6.67
2023-03-13T10:51:39.245Z,7.43
2023-03-13T10:54:30.641Z,7.30
2023-03-13T10:57:37.608Z,7.60
2023-03-13T11:00:45.852Z,7.17
2023-03-13T11:03:37.159Z,7.00
2023-03-13T11:06:28.371Z,7.37
2023-03-13T11:09:16.351Z,6.53
2023-03-13T11:11:56.331Z,6.57
2023-03-13T11:14:34.459Z,6.73
2023-03-13T11:17:25.261Z,7.20
2023-03-13T11:20:30.371Z,7.33
2023-03-13T11:23:25.089Z,6.77
2023-03-13T11:26:13.380Z,6.73
2023-03-13T11:29:04.039Z,7.30
2023-03-13T11:31:47.081Z,6.23
2023-03-13T11:34:31.789Z,6.67
2023-03-13T11:37:19.475Z,6.70
2023-03-13T11:40:15.270Z,6.67
2023-03-13T11:43:24.600Z,7.40
2023-03-13T11:46:21.848Z,6.47
2023-03-13T11:49:45.247Z,7.03
2023-03-13T11:52:45.702Z,7.33
2023-03-13T11:56:00.368Z,8.00
2023-03-13T11:59:30.936Z,8.80
2023-03-13T12:02:21.787Z,9.97
2023-03-13T12:05:06.350Z,8.83
2023-03-13T12:08:00.054Z,9.57
2023-03-13T12:10:44.299Z,8.47
2023-03-13T12:13:33.821Z,9.37
2023-03-13T12:16:16.929Z,10.10
2023-03-13T12:19:05.711Z,9.17
2023-03-13T12:21:59.159Z,8.37
2023-03-13T12:24:45.376Z,8.57
2023-03-13T12:27:39.737Z,10.37
2023-03-13T12:30:36.614Z,11.63
2023-03-13T12:33:33.160Z,9.50
2023-03-13T12:36:17.508Z,8.87
2023-03-13T12:39:02.887Z,9.53
2023-03-13T12:41:55.522Z,10.10
2023-03-13T12:44:37.059Z,9.83
2023-03-13T12:47:27.542Z,10.90
2023-03-13T12:50:37.696Z,11.47
2023-03-13T12:53:53.493Z,13.97
2023-03-13T12:57:16.662Z,13.10
2023-03-13T12:59:58.783Z,13.50
2023-03-13T13:02:39.704Z,12.33
2023-03-13T13:05:28.847Z,13.53
2023-03-13T13:08:06.067Z,12.60
2023-03-13T13:10:43.622Z,12.60
2023-03-13T13:13:46.415Z,12.07
2023-03-13T13:16:28.148Z,11.93
2023-03-13T13:19:43.585Z,12.80
2023-03-13T13:22:54.972Z,12.53
2023-03-13T13:25:46.050Z,12.77
2023-03-13T13:28:46.734Z,13.23
2023-03-13T13:32:09.074Z,13.90
2023-03-13T13:35:09.155Z,13.37
2023-03-13T13:37:49.507Z,12.50
2023-03-13T13:40:31.615Z,13.70
2023-03-13T13:43:32.449Z,13.27
2023-03-13T13:46:30.216Z,13.30
2023-03-13T13:49:26.517Z,13.47
2023-03-13T13:52:39.118Z,14.43
2023-03-13T13:55:49.217Z,14.17
2023-03-13T13:58:34.582Z,13.47
2023-03-13T14:01:24.828Z,13.87
2023-03-13T14:04:12.461Z,14.17
2023-03-13T14:06:54.233Z,16.00
2023-03-13T14:09:45.092Z,14.87
2023-03-13T14:12:38.266Z,15.53
2023-03-13T14:15:23.924Z,16.43
2023-03-13T14:18:21.704Z,15.40
2023-03-13T14:21:16.629Z,15.00
2023-03-13T14:24:03.396Z,15.60
2023-03-13T14:27:10.131Z,16.73
2023-03-13T14:30:05.901Z,17.10
2023-03-13T14:32:49.264Z,18.07
2023-03-13T14:35:42.697Z,17.20
2023-03-13T14:38:36.346Z,17.83
2023-03-13T14:41:32.058Z,17.20
2023-03-13T14:44:21.056Z,17.80
2023-03-13T14:47:05.275Z,19.57
2023-03-13T14:49:44.274Z,20.43
2023-03-13T14:52:37.951Z,20.57
2023-03-13T14:55:36.270Z,21.47
2023-03-13T14:58:38.180Z,24.23
2023-03-13T15:01:33.352Z,23.63
2023-03-13T15:04:10.029Z,23.73
2023-03-13T15:06:54.426Z,23.73
2023-03-13T15:09:37.899Z,24.03
2023-03-13T15:12:24.681Z,24.90
2023-03-13T15:15:05.753Z,24.97
2023-03-13T15:17:53.028Z,24.10
2023-03-13T15:20:31.927Z,24.07
2023-03-13T15:23:25.682Z,24.77
2023-03-13T15:26:13.406Z,23.27
2023-03-13T15:28:55.103Z,24.20
2023-03-13T15:31:37.336Z,23.67
2023-03-13T15:34:18.556Z,27.70
2023-03-13T15:37:12.264Z,24.67
2023-03-13T15:39:52.265Z,23.43
2023-03-13T15:42:33.998Z,24.63
2023-03-13T15:45:15.981Z,25.13
2023-03-13T15:48:07.914Z,24.57
2023-03-13T15:50:44.200Z,24.17
2023-03-13T15:53:28.108Z,24.83
2023-03-13T15:56:18.207Z,23.20
2023-03-13T15:59:29.542Z,27.37
2023-03-13T16:02:09.004Z,21.93
2023-03-13T16:04:53.766Z,20.37
2023-03-13T16:07:32.289Z,17.17
2023-03-13T16:10:13.866Z,19.23
2023-03-13T16:12:53.098Z,26.17
2023-03-13T16:15:33.743Z,24.87
2023-03-13T16:18:10.327Z,25.17
2023-03-13T16:20:47.722Z,23.83
2023-03-13T16:23:29.470Z,24.50
2023-03-13T16:26:13.283Z,26.63
2023-03-13T16:28:49.911Z,27.63
2023-03-13T16:31:35.069Z,25.93
2023-03-13T16:34:13.658Z,26.93
2023-03-13T16:36:52.441Z,26.30
2023-03-13T16:39:31.636Z,29.60
2023-03-13T16:42:08.672Z,28.13
2023-03-13T16:44:48.359Z,26.40
2023-03-13T16:47:31.166Z,27.23
2023-03-13T16:50:07.744Z,26.93
2023-03-13T16:52:47.505Z,27.77
2023-03-13T16:55:29.829Z,28.70
2023-03-13T16:58:10.673Z,28.87
2023-03-13T17:01:05.043Z,29.17
2023-03-13T17:03:45.827Z,29.57
2023-03-13T17:06:27.057Z,31.43
2023-03-13T17:09:05.786Z,30.63
2023-03-13T17:11:49.826Z,35.37
2023-03-13T17:14:31.448Z,34.60
2023-03-13T17:17:10.067Z,34.43
2023-03-13T17:19:50.292Z,36.40
2023-03-13T17:22:32.113Z,30.77
2023-03-13T17:25:12.318Z,34.97
2023-03-13T17:27:54.396Z,32.13
2023-03-13T17:30:38.726Z,35.33
2023-03-13T17:33:18.059Z,35.33
2023-03-13T17:36:03.623Z,34.90
2023-03-13T17:38:57.974Z,36.43
2023-03-13T17:41:44.253Z,34.97
2023-03-13T17:44:23.630Z,37.47
2023-03-13T17:47:02.997Z,37.57
2023-03-13T17:50:15.782Z,38.20
2023-03-13T17:53:09.763Z,42.10
2023-03-13T17:55:53.219Z,41.63
2023-03-13T17:58:34.388Z,43.03
2023-03-13T18:01:19.591Z,42.33
2023-03-13T18:04:04.268Z,44.13
2023-03-13T18:06:46.747Z,44.47
2023-03-13T18:09:26.775Z,44.57
2023-03-13T18:12:03.086Z,46.20
2023-03-13T18:14:41.471Z,46.60
2023-03-13T18:17:32.894Z,45.77
2023-03-13T18:20:12.240Z,47.00
2023-03-13T18:22:48.267Z,44.37
2023-03-13T18:25:28.153Z,45.30
2023-03-13T18:28:05.255Z,44.77
2023-03-13T18:30:46.535Z,47.27
2023-03-13T18:33:23.003Z,46.60
2023-03-13T18:35:58.312Z,49.87
2023-03-13T18:38:34.420Z,49.57
2023-03-13T18:41:12.959Z,48.87
2023-03-13T18:43:50.073Z,50.60
2023-03-13T18:46:31.980Z,50.70
2023-03-13T18:49:07.326Z,52.00
2023-03-13T18:51:42.422Z,52.27
2023-03-13T18:54:17.831Z,50.97
2023-03-13T18:56:57.385Z,52.13
2023-03-13T18:59:33.301Z,53.00
2023-03-13T19:02:10.213Z,53.57
2023-03-13T19:04:46.069Z,54.70
2023-03-13T19:07:25.796Z,54.30
2023-03-13T19:10:01.567Z,53.77
2023-03-13T19:12:40.045Z,53.47
2023-03-13T19:15:17.401Z,54.20
2023-03-13T19:17:53.245Z,55.30
2023-03-13T19:20:29.152Z,54.50
2023-03-13T19:23:04.432Z,62.53
2023-03-13T19:25:40.054Z,56.20
2023-03-13T19:28:18.315Z,60.27
2023-03-13T19:30:53.966Z,55.17
2023-03-13T19:33:28.745Z,54.77
2023-03-13T19:36:03.765Z,55.97
2023-03-13T19:38:41.159Z,55.93
2023-03-13T19:41:17.828Z,56.20
2023-03-13T19:43:54.210Z,53.83
2023-03-13T19:46:30.485Z,54.17
2023-03-13T19:49:05.556Z,53.43
2023-03-13T19:51:39.943Z,52.97
2023-03-13T19:54:15.816Z,54.03
2023-03-13T19:56:52.239Z,51.23
2023-03-13T19:59:33.476Z,54.23
2023-03-13T20:02:08.838Z,53.20
2023-03-13T20:04:47.113Z,52.03
2023-03-13T20:07:23.244Z,53.43
2023-03-13T20:09:56.529Z,52.97
2023-03-13T20:12:31.457Z,51.67
2023-03-13T20:15:08.293Z,49.17
2023-03-13T20:17:42.359Z,49.53
2023-03-13T20:20:17.609Z,50.87
2023-03-13T20:22:52.759Z,48.20
2023-03-13T20:25:27.501Z,45.40
2023-03-13T20:28:02.538Z,45.80
2023-03-13T20:30:41.754Z,43.40
2023-03-13T20:33:17.131Z,44.40
2023-03-13T20:35:52.171Z,41.87
2023-03-13T20:38:26.281Z,41.87
2023-03-13T20:41:01.798Z,43.90
2023-03-13T20:43:37.010Z,42.83
2023-03-13T20:46:13.641Z,41.27
2023-03-13T20:48:49.492Z,39.60
2023-03-13T20:51:23.629Z,40.37
2023-03-13T20:53:59.374Z,42.13
2023-03-13T20:56:34.678Z,44.27
2023-03-13T20:59:09.427Z,44.47
2023-03-13T21:01:45.148Z,44.47
2023-03-13T21:04:21.124Z,45.50
2023-03-13T21:06:54.820Z,44.87
2023-03-13T21:09:29.214Z,42.23
2023-03-13T21:12:03.922Z,40.00
2023-03-13T21:14:39.344Z,39.63
2023-03-13T21:17:17.580Z,40.17
2023-03-13T21:19:52.319Z,44.37
2023-03-13T21:22:30.097Z,42.87
2023-03-13T21:25:06.623Z,41.67
2023-03-13T21:27:45.044Z,43.77
2023-03-13T21:30:21.813Z,43.37
2023-03-13T21:32:59.802Z,43.03
2023-03-13T21:35:33.943Z,39.77
2023-03-13T21:38:08.622Z,41.20
2023-03-13T21:40:44.454Z,39.90
2023-03-13T21:43:18.508Z,40.20
2023-03-13T21:45:53.085Z,39.23
2023-03-13T21:48:28.270Z,39.17
2023-03-13T21:51:02.869Z,39.07
2023-03-13T21:53:39.078Z,38.73
2023-03-13T21:56:17.260Z,38.17
2023-03-13T21:58:51.642Z,39.67
2023-03-13T22:01:26.329Z,39.57
2023-03-13T22:04:03.077Z,38.53
2023-03-13T22:06:37.567Z,38.87
2023-03-13T22:09:12.916Z,38.33
2023-03-13T22:11:48.520Z,37.63
2023-03-13T22:14:23.931Z,38.70
2023-03-13T22:16:58.428Z,36.73
2023-03-13T22:19:36.140Z,37.27
2023-03-13T22:22:10.327Z,35.07
2023-03-13T22:24:46.305Z,38.00
2023-03-13T22:27:21.080Z,36.57
2023-03-13T22:29:56.539Z,36.77
2023-03-13T22:32:32.223Z,34.70
2023-03-13T22:35:10.149Z,33.13
2023-03-13T22:37:45.042Z,33.50
2023-03-13T22:40:22.179Z,31.27
2023-03-13T22:42:57.363Z,31.17
2023-03-13T22:45:33.780Z,33.03
2023-03-13T22:48:10.487Z,31.37
2023-03-13T22:50:47.721Z,29.90
2023-03-13T22:53:23.466Z,28.80
2023-03-13T22:55:58.105Z,29.63
2023-03-13T22:58:33.925Z,29.87
2023-03-13T23:01:12.384Z,30.63
2023-03-13T23:03:48.220Z,31.20
2023-03-13T23:06:28.027Z,30.47
2023-03-13T23:09:02.982Z,32.43
2023-03-13T23:11:39.102Z,29.90
2023-03-13T23:14:13.768Z,31.27
2023-03-13T23:16:49.524Z,31.60
2023-03-13T23:19:24.981Z,31.33
2023-03-13T23:22:02.317Z,33.00
2023-03-13T23:24:37.711Z,31.77
2023-03-13T23:27:13.591Z,32.07
2023-03-13T23:29:49.263Z,32.83
2023-03-13T23:32:24.580Z,33.23
2023-03-13T23:35:02.476Z,32.10
2023-03-13T23:37:41.140Z,34.23
2023-03-13T23:40:19.576Z,33.23
2023-03-13T23:42:55.986Z,33.23
2023-03-13T23:45:31.389Z,33.83
2023-03-13T23:48:06.758Z,31.90
2023-03-13T23:50:42.331Z,34.17
2023-03-13T23:53:21.548Z,33.50
2023-03-13T23:56:04.567Z,33.87
2023-03-13T23:58:42.800Z,33.93
